sensor_id;sensor_type;location;lat;lon;timestamp;temperature;humidity
17399;DHT22;8817;48.170;8.592;2023-05-07T00:00:40;20.40;44.60
17399;DHT22;8817;48.170;8.592;2023-05-07T00:03:08;20.40;44.70
17399;DHT22;8817;48.170;8.592;2023-05-07T00:05:36;20.40;44.70
17399;DHT22;8817;48.170;8.592;2023-05-07T00:08:03;20.30;44.70
17399;DHT22;8817;48.170;8.592;2023-05-07T00:10:30;20.30;44.70
17399;DHT22;8817;48.170;8.592;2023-05-07T00:12:57;20.30;44.70
17399;DHT22;8817;48.170;8.592;2023-05-07T00:15:24;20.30;44.80
17399;DHT22;8817;48.170;8.592;2023-05-07T00:17:51;20.20;44.80
17399;DHT22;8817;48.170;8.592;2023-05-07T00:20:18;20.20;44.80
17399;DHT22;8817;48.170;8.592;2023-05-07T00:22:46;20.20;44.80
17399;DHT22;8817;48.170;8.592;2023-05-07T00:25:13;20.20;44.90
17399;DHT22;8817;48.170;8.592;2023-05-07T00:27:40;20.20;44.90
17399;DHT22;8817;48.170;8.592;2023-05-07T00:30:07;20.20;44.90
17399;DHT22;8817;48.170;8.592;2023-05-07T00:32:35;20.20;44.90
17399;DHT22;8817;48.170;8.592;2023-05-07T00:35:02;20.10;44.80
17399;DHT22;8817;48.170;8.592;2023-05-07T00:37:29;20.10;44.90
17399;DHT22;8817;48.170;8.592;2023-05-07T00:39:57;20.10;45.00
17399;DHT22;8817;48.170;8.592;2023-05-07T00:42:24;20.10;44.90
17399;DHT22;8817;48.170;8.592;2023-05-07T00:44:51;20.00;44.90
17399;DHT22;8817;48.170;8.592;2023-05-07T00:47:18;20.00;45.00
17399;DHT22;8817;48.170;8.592;2023-05-07T00:49:45;20.00;45.00
17399;DHT22;8817;48.170;8.592;2023-05-07T00:52:14;20.00;45.00
17399;DHT22;8817;48.170;8.592;2023-05-07T00:54:42;19.90;45.00
17399;DHT22;8817;48.170;8.592;2023-05-07T00:57:10;20.00;45.10
17399;DHT22;8817;48.170;8.592;2023-05-07T00:59:38;19.90;45.10
17399;DHT22;8817;48.170;8.592;2023-05-07T01:02:06;19.90;45.10
17399;DHT22;8817;48.170;8.592;2023-05-07T01:04:33;19.90;45.10
17399;DHT22;8817;48.170;8.592;2023-05-07T01:07:01;19.90;45.10
17399;DHT22;8817;48.170;8.592;2023-05-07T01:09:28;19.90;45.10
17399;DHT22;8817;48.170;8.592;2023-05-07T01:11:56;19.80;45.10
17399;DHT22;8817;48.170;8.592;2023-05-07T01:14:25;19.80;45.20
17399;DHT22;8817;48.170;8.592;2023-05-07T01:16:52;19.80;45.20
17399;DHT22;8817;48.170;8.592;2023-05-07T01:19:20;19.80;45.20
17399;DHT22;8817;48.170;8.592;2023-05-07T01:21:48;19.80;45.20
17399;DHT22;8817;48.170;8.592;2023-05-07T01:24:16;19.80;45.30
17399;DHT22;8817;48.170;8.592;2023-05-07T01:26:44;19.70;45.30
17399;DHT22;8817;48.170;8.592;2023-05-07T01:29:11;19.70;45.30
17399;DHT22;8817;48.170;8.592;2023-05-07T01:31:39;19.70;45.30
17399;DHT22;8817;48.170;8.592;2023-05-07T01:34:08;19.70;45.40
17399;DHT22;8817;48.170;8.592;2023-05-07T01:36:37;19.70;46.00
17399;DHT22;8817;48.170;8.592;2023-05-07T01:39:05;19.70;45.40
17399;DHT22;8817;48.170;8.592;2023-05-07T01:41:35;19.70;45.40
17399;DHT22;8817;48.170;8.592;2023-05-07T01:44:03;19.70;45.40
17399;DHT22;8817;48.170;8.592;2023-05-07T01:46:31;19.70;45.50
17399;DHT22;8817;48.170;8.592;2023-05-07T01:48:58;19.70;45.50
17399;DHT22;8817;48.170;8.592;2023-05-07T01:51:25;19.60;45.40
17399;DHT22;8817;48.170;8.592;2023-05-07T01:53:52;19.60;45.40
17399;DHT22;8817;48.170;8.592;2023-05-07T01:56:19;19.60;45.40
17399;DHT22;8817;48.170;8.592;2023-05-07T01:58:48;19.60;45.50
17399;DHT22;8817;48.170;8.592;2023-05-07T02:01:16;19.50;45.50
17399;DHT22;8817;48.170;8.592;2023-05-07T02:03:43;19.50;45.50
17399;DHT22;8817;48.170;8.592;2023-05-07T02:06:10;19.50;45.50
17399;DHT22;8817;48.170;8.592;2023-05-07T02:08:37;19.50;45.60
17399;DHT22;8817;48.170;8.592;2023-05-07T02:11:04;19.50;45.60
17399;DHT22;8817;48.170;8.592;2023-05-07T02:13:33;19.50;45.60
17399;DHT22;8817;48.170;8.592;2023-05-07T02:16:02;19.50;45.60
17399;DHT22;8817;48.170;8.592;2023-05-07T02:18:29;19.50;45.80
17399;DHT22;8817;48.170;8.592;2023-05-07T02:20:56;19.40;45.50
17399;DHT22;8817;48.170;8.592;2023-05-07T02:23:22;19.40;45.60
17399;DHT22;8817;48.170;8.592;2023-05-07T02:25:50;19.40;45.60
17399;DHT22;8817;48.170;8.592;2023-05-07T02:28:17;19.40;45.70
17399;DHT22;8817;48.170;8.592;2023-05-07T02:30:44;19.40;45.60
17399;DHT22;8817;48.170;8.592;2023-05-07T02:33:12;19.40;45.60
17399;DHT22;8817;48.170;8.592;2023-05-07T02:35:39;19.30;45.70
17399;DHT22;8817;48.170;8.592;2023-05-07T02:38:06;19.30;45.60
17399;DHT22;8817;48.170;8.592;2023-05-07T02:40:33;19.30;45.70
17399;DHT22;8817;48.170;8.592;2023-05-07T02:43:04;19.30;45.70
17399;DHT22;8817;48.170;8.592;2023-05-07T02:45:31;19.30;45.70
17399;DHT22;8817;48.170;8.592;2023-05-07T02:47:58;19.20;45.70
17399;DHT22;8817;48.170;8.592;2023-05-07T02:50:26;19.20;45.70
17399;DHT22;8817;48.170;8.592;2023-05-07T02:52:53;19.20;45.70
17399;DHT22;8817;48.170;8.592;2023-05-07T02:55:20;19.20;45.70
17399;DHT22;8817;48.170;8.592;2023-05-07T02:57:47;19.20;45.70
17399;DHT22;8817;48.170;8.592;2023-05-07T03:00:15;19.10;45.70
17399;DHT22;8817;48.170;8.592;2023-05-07T03:02:42;19.10;45.70
17399;DHT22;8817;48.170;8.592;2023-05-07T03:05:09;19.10;46.20
17399;DHT22;8817;48.170;8.592;2023-05-07T03:07:37;19.10;45.70
17399;DHT22;8817;48.170;8.592;2023-05-07T03:10:05;19.10;45.80
17399;DHT22;8817;48.170;8.592;2023-05-07T03:12:32;19.00;45.70
17399;DHT22;8817;48.170;8.592;2023-05-07T03:14:59;19.00;45.70
17399;DHT22;8817;48.170;8.592;2023-05-07T03:17:26;19.00;45.80
17399;DHT22;8817;48.170;8.592;2023-05-07T03:19:53;19.00;45.80
17399;DHT22;8817;48.170;8.592;2023-05-07T03:22:20;18.90;45.70
17399;DHT22;8817;48.170;8.592;2023-05-07T03:24:48;18.90;45.70
17399;DHT22;8817;48.170;8.592;2023-05-07T03:27:15;18.90;45.80
17399;DHT22;8817;48.170;8.592;2023-05-07T03:29:42;18.90;45.80
17399;DHT22;8817;48.170;8.592;2023-05-07T03:32:08;18.90;45.90
17399;DHT22;8817;48.170;8.592;2023-05-07T03:34:35;18.80;45.80
17399;DHT22;8817;48.170;8.592;2023-05-07T03:37:02;18.80;45.90
17399;DHT22;8817;48.170;8.592;2023-05-07T03:39:29;18.80;45.90
17399;DHT22;8817;48.170;8.592;2023-05-07T03:41:59;18.80;45.90
17399;DHT22;8817;48.170;8.592;2023-05-07T03:44:26;18.80;45.90
17399;DHT22;8817;48.170;8.592;2023-05-07T03:46:53;18.70;45.90
17399;DHT22;8817;48.170;8.592;2023-05-07T03:49:20;18.70;45.90
17399;DHT22;8817;48.170;8.592;2023-05-07T03:51:47;18.60;45.90
17399;DHT22;8817;48.170;8.592;2023-05-07T03:54:14;18.60;45.90
17399;DHT22;8817;48.170;8.592;2023-05-07T03:56:41;18.60;45.90
17399;DHT22;8817;48.170;8.592;2023-05-07T03:59:09;18.60;46.00
17399;DHT22;8817;48.170;8.592;2023-05-07T04:01:36;18.50;45.90
17399;DHT22;8817;48.170;8.592;2023-05-07T04:04:03;18.50;46.50
17399;DHT22;8817;48.170;8.592;2023-05-07T04:06:30;18.40;45.90
17399;DHT22;8817;48.170;8.592;2023-05-07T04:08:57;18.40;45.90
17399;DHT22;8817;48.170;8.592;2023-05-07T04:11:24;18.40;45.90
17399;DHT22;8817;48.170;8.592;2023-05-07T04:13:51;18.30;45.90
17399;DHT22;8817;48.170;8.592;2023-05-07T04:16:19;18.30;46.00
17399;DHT22;8817;48.170;8.592;2023-05-07T04:18:46;18.20;46.00
17399;DHT22;8817;48.170;8.592;2023-05-07T04:21:17;18.20;46.00
17399;DHT22;8817;48.170;8.592;2023-05-07T04:23:44;18.10;46.00
17399;DHT22;8817;48.170;8.592;2023-05-07T04:26:11;18.10;46.00
17399;DHT22;8817;48.170;8.592;2023-05-07T04:28:38;18.10;46.10
17399;DHT22;8817;48.170;8.592;2023-05-07T04:31:05;18.10;46.20
17399;DHT22;8817;48.170;8.592;2023-05-07T04:33:34;18.00;46.20
17399;DHT22;8817;48.170;8.592;2023-05-07T04:36:02;18.00;46.30
17399;DHT22;8817;48.170;8.592;2023-05-07T04:38:29;18.00;46.40
17399;DHT22;8817;48.170;8.592;2023-05-07T04:40:57;18.00;46.40
17399;DHT22;8817;48.170;8.592;2023-05-07T04:43:23;18.00;46.60
17399;DHT22;8817;48.170;8.592;2023-05-07T04:45:51;18.00;46.60
17399;DHT22;8817;48.170;8.592;2023-05-07T04:48:18;18.00;46.60
17399;DHT22;8817;48.170;8.592;2023-05-07T04:50:48;18.10;46.80
17399;DHT22;8817;48.170;8.592;2023-05-07T04:53:16;18.10;46.80
17399;DHT22;8817;48.170;8.592;2023-05-07T04:55:43;18.20;46.80
17399;DHT22;8817;48.170;8.592;2023-05-07T04:58:10;18.10;47.40
17399;DHT22;8817;48.170;8.592;2023-05-07T05:00:37;18.20;46.90
17399;DHT22;8817;48.170;8.592;2023-05-07T05:03:06;18.30;46.90
17399;DHT22;8817;48.170;8.592;2023-05-07T05:05:32;18.30;46.90
17399;DHT22;8817;48.170;8.592;2023-05-07T05:08:01;18.30;46.90
17399;DHT22;8817;48.170;8.592;2023-05-07T05:10:28;18.30;47.00
17399;DHT22;8817;48.170;8.592;2023-05-07T05:12:55;18.40;47.10
17399;DHT22;8817;48.170;8.592;2023-05-07T05:15:22;18.40;47.10
17399;DHT22;8817;48.170;8.592;2023-05-07T05:17:48;18.40;47.10
17399;DHT22;8817;48.170;8.592;2023-05-07T05:20:15;18.50;47.20
17399;DHT22;8817;48.170;8.592;2023-05-07T05:22:42;18.50;47.20
17399;DHT22;8817;48.170;8.592;2023-05-07T05:25:10;18.60;47.40
17399;DHT22;8817;48.170;8.592;2023-05-07T05:27:37;18.70;47.50
17399;DHT22;8817;48.170;8.592;2023-05-07T05:30:05;18.70;47.50
17399;DHT22;8817;48.170;8.592;2023-05-07T05:32:32;18.80;47.60
17399;DHT22;8817;48.170;8.592;2023-05-07T05:34:59;18.90;47.60
17399;DHT22;8817;48.170;8.592;2023-05-07T05:37:26;19.00;47.80
17399;DHT22;8817;48.170;8.592;2023-05-07T05:39:53;19.10;47.90
17399;DHT22;8817;48.170;8.592;2023-05-07T05:42:23;19.20;48.00
17399;DHT22;8817;48.170;8.592;2023-05-07T05:44:50;19.20;48.00
17399;DHT22;8817;48.170;8.592;2023-05-07T05:47:17;19.40;48.00
17399;DHT22;8817;48.170;8.592;2023-05-07T05:49:44;19.50;48.10
17399;DHT22;8817;48.170;8.592;2023-05-07T05:52:12;19.60;48.00
17399;DHT22;8817;48.170;8.592;2023-05-07T05:54:39;19.70;48.00
17399;DHT22;8817;48.170;8.592;2023-05-07T05:57:06;19.70;47.90
17399;DHT22;8817;48.170;8.592;2023-05-07T05:59:34;19.80;47.90
17399;DHT22;8817;48.170;8.592;2023-05-07T06:02:01;19.90;47.90
17399;DHT22;8817;48.170;8.592;2023-05-07T06:04:28;19.90;47.90
17399;DHT22;8817;48.170;8.592;2023-05-07T06:06:55;20.00;47.90
17399;DHT22;8817;48.170;8.592;2023-05-07T06:09:22;20.00;47.70
17399;DHT22;8817;48.170;8.592;2023-05-07T06:11:49;20.10;47.80
17399;DHT22;8817;48.170;8.592;2023-05-07T06:14:16;20.10;47.80
17399;DHT22;8817;48.170;8.592;2023-05-07T06:16:44;20.10;47.70
17399;DHT22;8817;48.170;8.592;2023-05-07T06:19:11;20.10;47.70
17399;DHT22;8817;48.170;8.592;2023-05-07T06:21:39;20.10;47.70
17399;DHT22;8817;48.170;8.592;2023-05-07T06:24:06;20.10;47.80
17399;DHT22;8817;48.170;8.592;2023-05-07T06:26:33;20.10;47.80
17399;DHT22;8817;48.170;8.592;2023-05-07T06:29:00;20.20;48.50
17399;DHT22;8817;48.170;8.592;2023-05-07T06:31:30;20.20;47.90
17399;DHT22;8817;48.170;8.592;2023-05-07T06:33:58;20.20;48.00
17399;DHT22;8817;48.170;8.592;2023-05-07T06:36:27;20.20;48.10
17399;DHT22;8817;48.170;8.592;2023-05-07T06:38:54;20.30;48.20
17399;DHT22;8817;48.170;8.592;2023-05-07T06:41:21;20.30;48.20
17399;DHT22;8817;48.170;8.592;2023-05-07T06:43:48;20.40;48.30
17399;DHT22;8817;48.170;8.592;2023-05-07T06:46:15;20.40;48.30
17399;DHT22;8817;48.170;8.592;2023-05-07T06:48:42;20.50;48.30
17399;DHT22;8817;48.170;8.592;2023-05-07T06:51:10;20.60;48.30
17399;DHT22;8817;48.170;8.592;2023-05-07T06:53:37;20.60;48.20
17399;DHT22;8817;48.170;8.592;2023-05-07T06:56:04;20.60;48.10
17399;DHT22;8817;48.170;8.592;2023-05-07T06:58:31;20.70;48.20
17399;DHT22;8817;48.170;8.592;2023-05-07T07:00:58;20.70;48.10
17399;DHT22;8817;48.170;8.592;2023-05-07T07:03:25;20.70;48.20
17399;DHT22;8817;48.170;8.592;2023-05-07T07:05:52;20.70;48.30
17399;DHT22;8817;48.170;8.592;2023-05-07T07:08:21;20.80;48.50
17399;DHT22;8817;48.170;8.592;2023-05-07T07:10:48;20.80;48.60
17399;DHT22;8817;48.170;8.592;2023-05-07T07:13:15;20.90;48.70
17399;DHT22;8817;48.170;8.592;2023-05-07T07:15:42;21.00;48.80
17399;DHT22;8817;48.170;8.592;2023-05-07T07:18:09;21.00;48.80
17399;DHT22;8817;48.170;8.592;2023-05-07T07:20:36;21.20;48.90
17399;DHT22;8817;48.170;8.592;2023-05-07T07:23:03;21.20;48.90
17399;DHT22;8817;48.170;8.592;2023-05-07T07:25:31;21.40;49.10
17399;DHT22;8817;48.170;8.592;2023-05-07T07:27:59;21.50;49.00
17399;DHT22;8817;48.170;8.592;2023-05-07T07:30:26;21.60;49.00
17399;DHT22;8817;48.170;8.592;2023-05-07T07:32:52;21.70;48.90
17399;DHT22;8817;48.170;8.592;2023-05-07T07:35:20;21.80;49.00
17399;DHT22;8817;48.170;8.592;2023-05-07T07:37:48;21.80;48.90
17399;DHT22;8817;48.170;8.592;2023-05-07T07:40:16;21.90;48.80
17399;DHT22;8817;48.170;8.592;2023-05-07T07:42:45;21.90;48.70
17399;DHT22;8817;48.170;8.592;2023-05-07T07:45:11;22.00;48.70
17399;DHT22;8817;48.170;8.592;2023-05-07T07:47:39;22.00;48.60
17399;DHT22;8817;48.170;8.592;2023-05-07T07:50:06;22.10;48.70
17399;DHT22;8817;48.170;8.592;2023-05-07T07:52:33;22.20;48.80
17399;DHT22;8817;48.170;8.592;2023-05-07T07:55:00;22.20;48.90
17399;DHT22;8817;48.170;8.592;2023-05-07T07:57:27;22.30;49.10
17399;DHT22;8817;48.170;8.592;2023-05-07T07:59:55;22.50;49.10
17399;DHT22;8817;48.170;8.592;2023-05-07T08:02:22;22.60;49.50
17399;DHT22;8817;48.170;8.592;2023-05-07T08:04:49;22.70;48.90
17399;DHT22;8817;48.170;8.592;2023-05-07T08:07:16;22.80;48.90
17399;DHT22;8817;48.170;8.592;2023-05-07T08:09:46;22.90;48.90
17399;DHT22;8817;48.170;8.592;2023-05-07T08:12:13;22.90;49.40
17399;DHT22;8817;48.170;8.592;2023-05-07T08:14:40;23.10;49.00
17399;DHT22;8817;48.170;8.592;2023-05-07T08:17:08;23.20;49.00
17399;DHT22;8817;48.170;8.592;2023-05-07T08:19:35;23.30;49.00
17399;DHT22;8817;48.170;8.592;2023-05-07T08:22:02;23.40;48.90
17399;DHT22;8817;48.170;8.592;2023-05-07T08:24:29;23.50;48.80
17399;DHT22;8817;48.170;8.592;2023-05-07T08:26:56;23.60;48.80
17399;DHT22;8817;48.170;8.592;2023-05-07T08:29:24;23.70;48.80
17399;DHT22;8817;48.170;8.592;2023-05-07T08:31:50;23.80;48.80
17399;DHT22;8817;48.170;8.592;2023-05-07T08:34:19;23.90;48.80
17399;DHT22;8817;48.170;8.592;2023-05-07T08:36:46;24.00;48.70
17399;DHT22;8817;48.170;8.592;2023-05-07T08:39:14;24.10;48.60
17399;DHT22;8817;48.170;8.592;2023-05-07T08:41:44;24.20;48.50
17399;DHT22;8817;48.170;8.592;2023-05-07T08:44:13;24.20;48.90
17399;DHT22;8817;48.170;8.592;2023-05-07T08:46:41;24.40;48.40
17399;DHT22;8817;48.170;8.592;2023-05-07T08:49:09;24.40;48.30
17399;DHT22;8817;48.170;8.592;2023-05-07T08:51:37;24.50;48.30
17399;DHT22;8817;48.170;8.592;2023-05-07T08:54:04;24.50;48.10
17399;DHT22;8817;48.170;8.592;2023-05-07T08:56:32;24.60;48.00
17399;DHT22;8817;48.170;8.592;2023-05-07T08:58:59;24.60;47.90
17399;DHT22;8817;48.170;8.592;2023-05-07T09:01:26;24.70;47.90
17399;DHT22;8817;48.170;8.592;2023-05-07T09:03:53;24.70;47.90
17399;DHT22;8817;48.170;8.592;2023-05-07T09:06:20;24.70;47.90
17399;DHT22;8817;48.170;8.592;2023-05-07T09:08:53;24.70;47.90
17399;DHT22;8817;48.170;8.592;2023-05-07T09:11:20;24.70;47.90
17399;DHT22;8817;48.170;8.592;2023-05-07T09:13:49;24.80;47.90
17399;DHT22;8817;48.170;8.592;2023-05-07T09:16:16;24.90;47.90
17399;DHT22;8817;48.170;8.592;2023-05-07T09:18:43;24.90;47.90
17399;DHT22;8817;48.170;8.592;2023-05-07T09:21:15;25.00;47.90
17399;DHT22;8817;48.170;8.592;2023-05-07T09:23:42;25.00;47.90
17399;DHT22;8817;48.170;8.592;2023-05-07T09:26:10;25.10;47.90
17399;DHT22;8817;48.170;8.592;2023-05-07T09:28:39;25.20;47.90
17399;DHT22;8817;48.170;8.592;2023-05-07T09:31:07;25.30;47.90
17399;DHT22;8817;48.170;8.592;2023-05-07T09:33:34;25.40;47.90
17399;DHT22;8817;48.170;8.592;2023-05-07T09:36:04;25.50;47.90
17399;DHT22;8817;48.170;8.592;2023-05-07T09:38:32;25.50;47.80
17399;DHT22;8817;48.170;8.592;2023-05-07T09:41:02;25.70;47.80
17399;DHT22;8817;48.170;8.592;2023-05-07T09:43:33;25.70;47.60
17399;DHT22;8817;48.170;8.592;2023-05-07T09:46:03;25.80;47.60
17399;DHT22;8817;48.170;8.592;2023-05-07T09:48:30;25.90;47.50
17399;DHT22;8817;48.170;8.592;2023-05-07T09:51:02;25.90;47.40
17399;DHT22;8817;48.170;8.592;2023-05-07T09:53:29;25.90;47.10
17399;DHT22;8817;48.170;8.592;2023-05-07T09:55:58;26.00;47.10
17399;DHT22;8817;48.170;8.592;2023-05-07T09:58:26;26.00;46.90
17399;DHT22;8817;48.170;8.592;2023-05-07T10:00:56;26.00;46.80
17399;DHT22;8817;48.170;8.592;2023-05-07T10:03:24;26.00;46.70
17399;DHT22;8817;48.170;8.592;2023-05-07T10:05:54;25.90;46.70
17399;DHT22;8817;48.170;8.592;2023-05-07T10:08:21;25.90;46.60
17399;DHT22;8817;48.170;8.592;2023-05-07T10:10:49;25.90;46.60
17399;DHT22;8817;48.170;8.592;2023-05-07T10:13:17;25.90;46.50
17399;DHT22;8817;48.170;8.592;2023-05-07T10:15:45;25.90;46.40
17399;DHT22;8817;48.170;8.592;2023-05-07T10:18:13;25.80;46.30
17399;DHT22;8817;48.170;8.592;2023-05-07T10:20:43;25.80;46.20
17399;DHT22;8817;48.170;8.592;2023-05-07T10:23:14;25.70;46.10
17399;DHT22;8817;48.170;8.592;2023-05-07T10:25:45;25.70;46.00
17399;DHT22;8817;48.170;8.592;2023-05-07T10:28:12;25.70;46.10
17399;DHT22;8817;48.170;8.592;2023-05-07T10:30:48;25.60;46.20
17399;DHT22;8817;48.170;8.592;2023-05-07T10:33:25;25.60;46.40
17399;DHT22;8817;48.170;8.592;2023-05-07T10:35:57;25.60;46.40
17399;DHT22;8817;48.170;8.592;2023-05-07T10:38:26;25.70;46.60
17399;DHT22;8817;48.170;8.592;2023-05-07T10:40:53;25.70;46.60
17399;DHT22;8817;48.170;8.592;2023-05-07T10:43:20;25.70;46.40
17399;DHT22;8817;48.170;8.592;2023-05-07T10:46:14;25.80;46.50
17399;DHT22;8817;48.170;8.592;2023-05-07T10:49:08;25.80;46.50
17399;DHT22;8817;48.170;8.592;2023-05-07T10:51:37;25.90;46.40
17399;DHT22;8817;48.170;8.592;2023-05-07T10:54:20;25.90;46.30
17399;DHT22;8817;48.170;8.592;2023-05-07T10:56:48;25.90;46.20
17399;DHT22;8817;48.170;8.592;2023-05-07T10:59:46;25.90;46.10
17399;DHT22;8817;48.170;8.592;2023-05-07T11:02:13;25.90;46.10
17399;DHT22;8817;48.170;8.592;2023-05-07T11:04:42;25.90;45.90
17399;DHT22;8817;48.170;8.592;2023-05-07T11:07:30;25.80;45.80
17399;DHT22;8817;48.170;8.592;2023-05-07T11:10:02;25.70;45.90
17399;DHT22;8817;48.170;8.592;2023-05-07T11:12:49;25.60;45.70
17399;DHT22;8817;48.170;8.592;2023-05-07T11:15:34;25.50;45.70
17399;DHT22;8817;48.170;8.592;2023-05-07T11:18:01;25.40;45.60
17399;DHT22;8817;48.170;8.592;2023-05-07T11:20:48;25.40;45.60
17399;DHT22;8817;48.170;8.592;2023-05-07T11:26:45;25.10;45.50
17399;DHT22;8817;48.170;8.592;2023-05-07T11:29:13;25.00;45.60
17399;DHT22;8817;48.170;8.592;2023-05-07T11:31:40;24.90;45.60
17399;DHT22;8817;48.170;8.592;2023-05-07T11:34:08;24.70;45.50
17399;DHT22;8817;48.170;8.592;2023-05-07T11:36:42;24.70;45.60
17399;DHT22;8817;48.170;8.592;2023-05-07T11:39:26;24.50;45.60
17399;DHT22;8817;48.170;8.592;2023-05-07T11:41:53;24.40;45.80
17399;DHT22;8817;48.170;8.592;2023-05-07T11:44:20;24.30;45.80
17399;DHT22;8817;48.170;8.592;2023-05-07T11:46:47;24.20;45.90
17399;DHT22;8817;48.170;8.592;2023-05-07T11:49:15;24.20;46.00
17399;DHT22;8817;48.170;8.592;2023-05-07T11:51:43;24.10;46.00
17399;DHT22;8817;48.170;8.592;2023-05-07T11:54:15;23.90;45.90
17399;DHT22;8817;48.170;8.592;2023-05-07T11:56:43;23.80;46.00
17399;DHT22;8817;48.170;8.592;2023-05-07T11:59:10;23.60;45.80
17399;DHT22;8817;48.170;8.592;2023-05-07T12:01:37;23.30;45.70
17399;DHT22;8817;48.170;8.592;2023-05-07T12:04:04;23.10;45.70
17399;DHT22;8817;48.170;8.592;2023-05-07T12:06:35;22.80;45.60
17399;DHT22;8817;48.170;8.592;2023-05-07T12:09:04;22.60;45.60
17399;DHT22;8817;48.170;8.592;2023-05-07T12:11:32;22.30;45.60
17399;DHT22;8817;48.170;8.592;2023-05-07T12:14:00;22.10;45.70
17399;DHT22;8817;48.170;8.592;2023-05-07T12:16:27;21.90;45.80
17399;DHT22;8817;48.170;8.592;2023-05-07T12:18:55;21.80;45.90
17399;DHT22;8817;48.170;8.592;2023-05-07T12:21:24;21.70;46.00
17399;DHT22;8817;48.170;8.592;2023-05-07T12:23:51;21.60;46.10
17399;DHT22;8817;48.170;8.592;2023-05-07T12:26:20;21.40;46.20
17399;DHT22;8817;48.170;8.592;2023-05-07T12:28:47;21.30;46.30
17399;DHT22;8817;48.170;8.592;2023-05-07T12:31:14;21.30;46.40
17399;DHT22;8817;48.170;8.592;2023-05-07T12:33:42;21.20;46.50
17399;DHT22;8817;48.170;8.592;2023-05-07T12:36:12;21.20;46.60
17399;DHT22;8817;48.170;8.592;2023-05-07T12:38:40;21.10;46.80
17399;DHT22;8817;48.170;8.592;2023-05-07T12:41:08;21.20;46.90
17399;DHT22;8817;48.170;8.592;2023-05-07T12:43:37;21.10;47.00
17399;DHT22;8817;48.170;8.592;2023-05-07T12:46:05;21.20;47.20
17399;DHT22;8817;48.170;8.592;2023-05-07T12:48:32;21.20;47.20
17399;DHT22;8817;48.170;8.592;2023-05-07T12:51:01;21.20;47.20
17399;DHT22;8817;48.170;8.592;2023-05-07T12:53:29;21.30;47.20
17399;DHT22;8817;48.170;8.592;2023-05-07T12:55:58;21.30;47.30
17399;DHT22;8817;48.170;8.592;2023-05-07T12:58:27;21.30;47.30
17399;DHT22;8817;48.170;8.592;2023-05-07T13:00:56;21.30;47.40
17399;DHT22;8817;48.170;8.592;2023-05-07T13:03:27;21.30;47.40
17399;DHT22;8817;48.170;8.592;2023-05-07T13:05:55;21.40;47.50
17399;DHT22;8817;48.170;8.592;2023-05-07T13:08:26;21.40;47.60
17399;DHT22;8817;48.170;8.592;2023-05-07T13:10:53;21.40;47.60
17399;DHT22;8817;48.170;8.592;2023-05-07T13:13:20;21.40;47.60
17399;DHT22;8817;48.170;8.592;2023-05-07T13:15:47;21.40;47.90
17399;DHT22;8817;48.170;8.592;2023-05-07T13:18:17;21.50;47.70
17399;DHT22;8817;48.170;8.592;2023-05-07T13:20:44;21.50;47.80
17399;DHT22;8817;48.170;8.592;2023-05-07T13:23:10;21.50;47.90
17399;DHT22;8817;48.170;8.592;2023-05-07T13:25:37;21.60;48.00
17399;DHT22;8817;48.170;8.592;2023-05-07T13:28:04;21.60;48.10
17399;DHT22;8817;48.170;8.592;2023-05-07T13:30:31;21.70;48.20
17399;DHT22;8817;48.170;8.592;2023-05-07T13:32:58;21.70;48.30
17399;DHT22;8817;48.170;8.592;2023-05-07T13:35:26;21.80;48.50
17399;DHT22;8817;48.170;8.592;2023-05-07T13:37:53;21.90;48.60
17399;DHT22;8817;48.170;8.592;2023-05-07T13:40:21;21.90;48.60
17399;DHT22;8817;48.170;8.592;2023-05-07T13:42:48;22.00;48.80
17399;DHT22;8817;48.170;8.592;2023-05-07T13:45:16;22.20;49.20
17399;DHT22;8817;48.170;8.592;2023-05-07T13:47:43;22.30;49.30
17399;DHT22;8817;48.170;8.592;2023-05-07T13:50:11;22.50;49.50
17399;DHT22;8817;48.170;8.592;2023-05-07T13:52:40;22.70;49.40
17399;DHT22;8817;48.170;8.592;2023-05-07T13:55:08;22.80;49.30
17399;DHT22;8817;48.170;8.592;2023-05-07T13:57:35;23.00;49.30
17399;DHT22;8817;48.170;8.592;2023-05-07T14:00:03;23.10;49.30
17399;DHT22;8817;48.170;8.592;2023-05-07T14:02:30;23.20;49.20
17399;DHT22;8817;48.170;8.592;2023-05-07T14:04:57;23.30;49.10
17399;DHT22;8817;48.170;8.592;2023-05-07T14:07:24;23.50;49.00
17399;DHT22;8817;48.170;8.592;2023-05-07T14:09:53;23.60;48.90
17399;DHT22;8817;48.170;8.592;2023-05-07T14:12:20;23.60;48.70
17399;DHT22;8817;48.170;8.592;2023-05-07T14:14:46;23.70;48.70
17399;DHT22;8817;48.170;8.592;2023-05-07T14:17:15;23.70;48.60
17399;DHT22;8817;48.170;8.592;2023-05-07T14:19:42;23.80;48.40
17399;DHT22;8817;48.170;8.592;2023-05-07T14:22:09;23.80;48.20
17399;DHT22;8817;48.170;8.592;2023-05-07T14:24:36;23.70;47.90
17399;DHT22;8817;48.170;8.592;2023-05-07T14:27:05;23.70;47.80
17399;DHT22;8817;48.170;8.592;2023-05-07T14:29:32;23.70;47.80
17399;DHT22;8817;48.170;8.592;2023-05-07T14:32:01;23.70;47.90
17399;DHT22;8817;48.170;8.592;2023-05-07T14:34:27;23.60;47.90
17399;DHT22;8817;48.170;8.592;2023-05-07T14:36:54;23.60;48.50
17399;DHT22;8817;48.170;8.592;2023-05-07T14:39:21;23.60;47.90
17399;DHT22;8817;48.170;8.592;2023-05-07T14:41:48;23.60;47.80
17399;DHT22;8817;48.170;8.592;2023-05-07T14:44:17;23.50;47.60
17399;DHT22;8817;48.170;8.592;2023-05-07T14:46:43;23.50;47.60
17399;DHT22;8817;48.170;8.592;2023-05-07T14:49:10;23.40;48.20
17399;DHT22;8817;48.170;8.592;2023-05-07T14:51:42;23.30;47.50
17399;DHT22;8817;48.170;8.592;2023-05-07T14:54:09;23.30;47.40
17399;DHT22;8817;48.170;8.592;2023-05-07T14:56:36;23.20;47.40
17399;DHT22;8817;48.170;8.592;2023-05-07T14:59:03;23.10;47.30
17399;DHT22;8817;48.170;8.592;2023-05-07T15:01:32;23.00;47.30
17399;DHT22;8817;48.170;8.592;2023-05-07T15:04:00;23.00;47.40
17399;DHT22;8817;48.170;8.592;2023-05-07T15:06:27;22.90;47.50
17399;DHT22;8817;48.170;8.592;2023-05-07T15:08:54;22.90;47.50
17399;DHT22;8817;48.170;8.592;2023-05-07T15:11:22;22.90;47.60
17399;DHT22;8817;48.170;8.592;2023-05-07T15:13:49;22.90;47.80
17399;DHT22;8817;48.170;8.592;2023-05-07T15:16:16;22.90;47.90
17399;DHT22;8817;48.170;8.592;2023-05-07T15:18:44;22.90;48.00
17399;DHT22;8817;48.170;8.592;2023-05-07T15:21:11;22.90;48.00
17399;DHT22;8817;48.170;8.592;2023-05-07T15:23:38;23.00;48.00
17399;DHT22;8817;48.170;8.592;2023-05-07T15:26:06;23.00;48.10
17399;DHT22;8817;48.170;8.592;2023-05-07T15:28:34;23.00;48.10
17399;DHT22;8817;48.170;8.592;2023-05-07T15:31:01;23.10;48.10
17399;DHT22;8817;48.170;8.592;2023-05-07T15:33:27;23.10;48.10
17399;DHT22;8817;48.170;8.592;2023-05-07T15:35:56;23.10;48.10
17399;DHT22;8817;48.170;8.592;2023-05-07T15:38:24;23.10;48.60
17399;DHT22;8817;48.170;8.592;2023-05-07T15:40:51;23.10;48.10
17399;DHT22;8817;48.170;8.592;2023-05-07T15:43:18;23.20;48.10
17399;DHT22;8817;48.170;8.592;2023-05-07T15:45:46;23.20;48.20
17399;DHT22;8817;48.170;8.592;2023-05-07T15:48:13;23.20;48.20
17399;DHT22;8817;48.170;8.592;2023-05-07T15:50:39;23.30;48.30
17399;DHT22;8817;48.170;8.592;2023-05-07T15:53:08;23.30;48.20